Terminal Aerodrome Forecast
Issued by NWS Binghamton, NY

Home | Current Version | Previous Version | Text Only | Print | Product List | Glossary On
Versions: 1 2 3 4 5 6 7 8 9 10 11 12 13 14 15 16 17 18 19 20 21 22 23 24 25 26
429
FTUS41 KBGM 202320
TAFAVP
TAF
KAVP 202320Z 2100/2124 18005KT P6SM BKN250
     FM210600 VRB03KT P6SM OVC035
     FM211200 09006KT 5SM -RA OVC025
     FM211800 11006KT 3SM -RA OVC009=

USA.gov is the U.S. government's official web portal to all federal, state and local government web resources and services.